Campanya meteocatpedra

Dades EMA Golmés

?
?
Resum diari
Dades diàries de l'estació meteorològica
Temperatura mitjana 4.4 °C
Temperatura màxima 9.3 °C 15:09 TU
Temperatura mínima -0.1 °C 2:38 TU
Humitat relativa mitjana 88%
Precipitació acumulada 26.7 mm
Ratxa màxima del vent (2 m) 21.6 km/h - 67º 16:01 TU
Irradiació solar global 11.1 MJ/m2

El tram horari està expressat en Temps Universal (TU). Cal sumar una hora en horari d'hivern i dues en horari d'estiu per passar a l'hora oficial.

Golmés

Metadades estació meteorol´gica
Municipi Golmés
Comarca Pla d'Urgell
Altitud 261 m
Data alta 08.08.2000
Estat actual Operativa
Dades de període
Període
TU
TM
°C
TX
°C
TN
°C
HRM
%
PPT
mm
VVM (2 m)
km/h
DVM (2 m)
graus
VVX (2 m)
km/h
RS
W/m2
00:00 - 00:30 0.7 0.9 0.5 97 1.9 9.0 247 17.6 0
00:30 - 01:00 0.9 1.2 0.7 98 3.5 8.3 241 18.0 0
01:00 - 01:30 0.1 0.8 -0.1 97 0.3 11.9 213 19.8 0
01:30 - 02:00 -0.1 -0.1 -0.1 98 0.0 10.4 215 16.9 0
02:00 - 02:30 -0.1 -0.1 -0.1 98 0.1 10.4 210 16.6 0
02:30 - 03:00 0.0 0.0 -0.1 98 0.1 10.4 223 17.3 0
03:00 - 03:30 0.0 0.1 0.0 98 1.1 8.6 233 16.9 0
03:30 - 04:00 0.2 0.3 0.1 98 1.1 7.2 207 15.1 0
04:00 - 04:30 0.0 0.1 0.0 99 1.0 5.4 179 8.6 0
04:30 - 05:00 0.0 0.1 0.0 99 0.6 4.0 163 8.3 0
05:00 - 05:30 0.2 0.4 0.1 99 0.6 7.2 146 16.6 0
05:30 - 06:00 0.6 0.9 0.4 98 0.9 6.8 167 13.7 1
06:00 - 06:30 0.9 1.0 0.8 98 1.4 4.7 189 11.5 5
06:30 - 07:00 1.1 1.3 0.9 98 1.8 5.8 203 10.4 16
07:00 - 07:30 1.2 1.7 1.1 98 2.0 4.3 205 10.1 29
07:30 - 08:00 2.0 2.2 1.8 98 2.5 6.1 190 14.8 41
08:00 - 08:30 2.7 3.1 2.3 98 2.6 5.8 204 18.4 83
08:30 - 09:00 3.2 3.4 2.9 98 1.6 1.8 102 5.4 107
09:00 - 09:30 3.3 3.4 3.2 98 1.2 2.5 75 4.7 159
09:30 - 10:00 3.3 3.4 3.2 98 0.9 4.0 66 9.0 151
10:00 - 10:30 3.6 3.9 3.4 98 0.9 5.8 61 13.7 205
10:30 - 11:00 4.2 4.5 3.9 97 0.6 9.7 49 18.4 411
11:00 - 11:30 4.9 5.5 4.5 95 0.0 9.7 36 20.5 459
11:30 - 12:00 5.9 6.7 5.2 91 0.0 10.4 50 18.7 653
12:00 - 12:30 7.3 7.7 6.7 85 0.0 11.5 62 19.8 662
12:30 - 13:00 8.4 8.9 7.5 81 0.0 10.1 73 18.0 737
13:00 - 13:30 8.3 8.5 8.1 79 0.0 9.4 84 19.8 392
13:30 - 14:00 8.7 8.9 8.4 75 0.0 7.9 66 14.4 396
14:00 - 14:30 8.8 9.1 8.6 76 0.0 9.7 35 19.4 419
14:30 - 15:00 8.3 8.7 8.1 76 0.0 9.0 39 17.3 211
15:00 - 15:30 9.1 9.3 8.6 72 0.0 10.8 46 20.2 440
15:30 - 16:00 8.6 9.0 8.4 73 0.0 12.6 40 21.6 209
16:00 - 16:30 8.3 8.5 8.1 73 0.0 12.2 53 21.6 172
16:30 - 17:00 8.3 8.5 8.0 72 0.0 11.5 61 20.2 156
17:00 - 17:30 7.9 8.0 7.8 74 0.0 9.4 68 18.0 54
17:30 - 18:00 7.6 7.8 7.5 76 0.0 7.6 79 16.6 11
18:00 - 18:30 7.3 7.4 7.2 78 0.0 6.5 83 13.3 0
18:30 - 19:00 7.1 7.2 7.1 77 0.0 8.6 71 16.2 0
19:00 - 19:30 7.2 7.3 7.1 77 0.0 8.6 72 14.4 0
19:30 - 20:00 7.1 7.3 7.0 77 0.0 8.6 69 16.6 0
20:00 - 20:30 6.9 7.2 6.6 80 0.0 7.6 67 14.0 0
20:30 - 21:00 6.0 6.6 5.6 85 0.0 6.8 57 11.2 0
21:00 - 21:30 5.4 5.6 5.2 86 0.0 8.6 60 16.6 0
21:30 - 22:00 5.3 5.4 5.1 84 0.0 8.6 67 14.8 0
22:00 - 22:30 4.9 5.2 4.7 84 0.0 7.9 75 15.8 0
22:30 - 23:00 4.8 5.0 4.7 85 0.0 9.0 59 16.2 0
23:00 - 23:30 (s/d) (s/d) (s/d) (s/d) (s/d) (s/d) (s/d) (s/d) (s/d)

Les dades en taronja només han passat un control de qualitat automàtic. Resta pendent la seva validació definitiva.